createdAt,value
2022-08-25T00:02:00.016Z,20.34
2022-08-25T00:04:29.744Z,20.35
2022-08-25T00:07:02.096Z,20.34
2022-08-25T00:09:32.108Z,20.33
2022-08-25T00:12:00.053Z,20.31
2022-08-25T00:14:33.597Z,20.32
2022-08-25T00:17:02.519Z,20.30
2022-08-25T00:19:32.268Z,20.26
2022-08-25T00:22:01.502Z,20.26
2022-08-25T00:24:29.645Z,20.24
2022-08-25T00:26:59.156Z,20.21
2022-08-25T00:29:28.126Z,20.22
2022-08-25T00:31:56.279Z,20.20
2022-08-25T00:34:31.550Z,20.21
2022-08-25T00:36:59.259Z,20.25
2022-08-25T00:39:27.656Z,20.24
2022-08-25T00:41:57.637Z,20.23
2022-08-25T00:44:28.611Z,20.19
2022-08-25T00:46:58.880Z,20.17
2022-08-25T00:49:48.156Z,20.19
2022-08-25T00:52:25.257Z,20.19
2022-08-25T00:55:08.172Z,20.20
2022-08-25T00:58:14.634Z,20.20
2022-08-25T01:00:49.545Z,20.18
2022-08-25T01:03:19.249Z,20.13
2022-08-25T01:05:48.026Z,20.04
2022-08-25T01:08:16.232Z,20.08
2022-08-25T01:10:45.200Z,20.08
2022-08-25T01:13:23.829Z,20.12
2022-08-25T01:15:55.132Z,20.13
2022-08-25T01:18:24.212Z,20.10
2022-08-25T01:20:59.846Z,20.11
2022-08-25T01:23:27.666Z,20.09
2022-08-25T01:26:09.604Z,20.10
2022-08-25T01:28:38.094Z,20.10
2022-08-25T01:31:23.915Z,20.08
2022-08-25T01:33:52.096Z,19.98
2022-08-25T01:36:22.058Z,20.01
2022-08-25T01:38:50.370Z,20.04
2022-08-25T01:41:51.458Z,20.05
2022-08-25T01:44:19.336Z,20.03
2022-08-25T01:46:47.008Z,20.00
2022-08-25T01:49:14.861Z,19.99
2022-08-25T01:51:53.543Z,19.99
2022-08-25T01:54:21.082Z,20.00
2022-08-25T01:56:48.651Z,19.98
2022-08-25T01:59:24.012Z,20.00
2022-08-25T02:01:59.688Z,19.93
2022-08-25T02:04:32.442Z,19.93
2022-08-25T02:07:05.316Z,19.92
2022-08-25T02:09:33.450Z,19.93
2022-08-25T02:12:01.311Z,19.91
2022-08-25T02:14:28.777Z,19.88
2022-08-25T02:16:57.425Z,19.90
2022-08-25T02:19:26.113Z,19.90
2022-08-25T02:21:54.125Z,19.85
2022-08-25T02:24:21.607Z,19.85
2022-08-25T02:26:50.528Z,19.84
2022-08-25T02:29:18.357Z,19.90
2022-08-25T02:31:46.173Z,19.90
2022-08-25T02:34:15.288Z,19.82
2022-08-25T02:36:44.048Z,19.83
2022-08-25T02:39:12.616Z,19.87
2022-08-25T02:41:40.448Z,19.85
2022-08-25T02:44:09.422Z,19.84
2022-08-25T02:46:37.777Z,19.82
2022-08-25T02:49:06.796Z,19.84
2022-08-25T02:51:35.151Z,19.79
2022-08-25T02:54:04.276Z,19.75
2022-08-25T02:56:33.071Z,19.73
2022-08-25T02:59:02.031Z,19.71
2022-08-25T03:01:32.703Z,19.72
2022-08-25T03:04:01.893Z,19.72
2022-08-25T03:06:29.672Z,19.71
2022-08-25T03:08:57.376Z,19.68
2022-08-25T03:11:25.677Z,19.69
2022-08-25T03:13:54.185Z,19.70
2022-08-25T03:16:22.671Z,19.64
2022-08-25T03:18:56.382Z,19.66
2022-08-25T03:21:26.329Z,19.68
2022-08-25T03:23:53.659Z,19.68
2022-08-25T03:26:39.839Z,19.69
2022-08-25T03:29:07.922Z,19.64
2022-08-25T03:31:36.029Z,19.67
2022-08-25T03:34:04.560Z,19.64
2022-08-25T03:36:32.369Z,19.62
2022-08-25T03:39:00.406Z,19.61
2022-08-25T03:41:32.750Z,19.62
2022-08-25T03:44:01.913Z,19.58
2022-08-25T03:46:35.558Z,19.62
2022-08-25T03:49:05.970Z,19.63
2022-08-25T03:51:48.703Z,19.56
2022-08-25T03:54:20.245Z,19.55
2022-08-25T03:56:48.525Z,19.56
2022-08-25T03:59:16.245Z,19.57
2022-08-25T04:01:45.775Z,19.59
2022-08-25T04:04:15.274Z,19.58
2022-08-25T04:06:44.660Z,19.61
2022-08-25T04:09:13.013Z,19.59
2022-08-25T04:11:40.702Z,19.57
2022-08-25T04:14:15.927Z,19.55
2022-08-25T04:16:45.341Z,19.58
2022-08-25T04:19:13.128Z,19.57
2022-08-25T04:21:41.482Z,19.50
2022-08-25T04:24:12.077Z,19.53
2022-08-25T04:26:43.096Z,19.49
2022-08-25T04:29:12.058Z,19.48
2022-08-25T04:31:42.205Z,19.50
2022-08-25T04:34:14.263Z,19.47
2022-08-25T04:36:56.765Z,19.50
2022-08-25T04:39:24.449Z,19.46
2022-08-25T04:41:52.094Z,19.47
2022-08-25T04:44:19.982Z,19.48
2022-08-25T04:46:47.543Z,19.46
2022-08-25T04:49:15.376Z,19.47
2022-08-25T04:51:43.353Z,19.48
2022-08-25T04:54:13.920Z,19.46
2022-08-25T04:56:41.768Z,19.48
2022-08-25T04:59:14.858Z,19.50
2022-08-25T05:01:43.332Z,19.55
2022-08-25T05:04:14.730Z,19.53
2022-08-25T05:06:56.166Z,19.54
2022-08-25T05:09:25.217Z,19.56
2022-08-25T05:11:53.534Z,19.54
2022-08-25T05:14:25.654Z,19.51
2022-08-25T05:16:57.010Z,19.49
2022-08-25T05:19:25.350Z,19.49
2022-08-25T05:21:53.880Z,19.51
2022-08-25T05:24:22.797Z,19.58
2022-08-25T05:26:50.377Z,19.57
2022-08-25T05:29:18.300Z,19.57
2022-08-25T05:31:50.267Z,19.58
2022-08-25T05:34:19.612Z,19.56
2022-08-25T05:36:48.084Z,19.53
2022-08-25T05:39:15.834Z,19.52
2022-08-25T05:41:43.806Z,19.45
2022-08-25T05:44:12.935Z,19.49
2022-08-25T05:46:40.633Z,19.52
2022-08-25T05:49:08.131Z,19.52
2022-08-25T05:51:36.006Z,19.53
2022-08-25T05:54:04.011Z,19.54
2022-08-25T05:56:31.770Z,19.57
2022-08-25T05:58:59.328Z,19.55
2022-08-25T06:01:48.262Z,19.54
2022-08-25T06:04:18.133Z,19.58
2022-08-25T06:06:45.952Z,19.57
2022-08-25T06:09:13.665Z,19.60
2022-08-25T06:11:41.902Z,19.57
2022-08-25T06:14:11.096Z,19.56
2022-08-25T06:16:39.436Z,19.55
2022-08-25T06:19:08.834Z,19.60
2022-08-25T06:21:39.184Z,19.66
2022-08-25T06:24:10.970Z,19.67
2022-08-25T06:26:40.991Z,19.66
2022-08-25T06:29:08.495Z,19.61
2022-08-25T06:31:36.125Z,19.70
2022-08-25T06:34:03.724Z,19.73
2022-08-25T06:36:31.243Z,19.74
2022-08-25T06:38:58.810Z,19.76
2022-08-25T06:41:36.563Z,19.79
2022-08-25T06:44:11.083Z,19.82
2022-08-25T06:46:39.424Z,19.79
2022-08-25T06:49:08.177Z,19.78
2022-08-25T06:51:36.331Z,19.79
2022-08-25T06:54:06.444Z,19.75
2022-08-25T06:56:34.732Z,19.73
2022-08-25T06:59:04.484Z,19.78
2022-08-25T07:01:32.440Z,19.74
2022-08-25T07:04:05.004Z,19.73
2022-08-25T07:06:36.008Z,19.75
2022-08-25T07:09:08.583Z,19.76
2022-08-25T07:11:36.467Z,19.71
2022-08-25T07:14:06.264Z,19.73
2022-08-25T07:16:35.135Z,19.69
2022-08-25T07:19:03.703Z,19.69
2022-08-25T07:21:35.921Z,19.76
2022-08-25T07:24:13.025Z,19.81
2022-08-25T07:26:42.457Z,19.82
2022-08-25T07:29:17.232Z,19.86
2022-08-25T07:31:45.365Z,19.89
2022-08-25T07:34:31.269Z,19.96
2022-08-25T07:36:58.777Z,19.96
2022-08-25T07:39:29.094Z,19.99
2022-08-25T07:41:57.096Z,19.99
2022-08-25T07:44:28.069Z,19.95
2022-08-25T07:46:55.933Z,20.00
2022-08-25T07:49:25.142Z,19.98
2022-08-25T07:52:04.420Z,19.97
2022-08-25T07:54:37.683Z,19.97
2022-08-25T07:57:09.005Z,20.00
2022-08-25T07:59:41.798Z,19.99
2022-08-25T08:02:17.754Z,20.00
2022-08-25T08:04:51.792Z,20.00
2022-08-25T08:07:41.969Z,20.06
2022-08-25T08:13:01.896Z,20.06
2022-08-25T08:15:30.434Z,20.04
2022-08-25T08:17:59.604Z,20.07
2022-08-25T08:20:27.274Z,20.02
2022-08-25T08:22:55.038Z,20.05
2022-08-25T08:25:27.239Z,20.11
2022-08-25T08:27:56.595Z,20.15
2022-08-25T08:30:26.265Z,20.18
2022-08-25T08:33:11.651Z,20.23
2022-08-25T08:35:42.893Z,20.25
2022-08-25T08:38:17.306Z,20.27
2022-08-25T08:41:40.175Z,20.20
2022-08-25T08:44:28.344Z,20.16
2022-08-25T08:47:02.969Z,20.23
2022-08-25T08:49:53.922Z,20.29
2022-08-25T08:52:37.652Z,20.25
2022-08-25T08:55:11.898Z,20.22
2022-08-25T08:57:45.119Z,20.23
2022-08-25T09:00:16.034Z,20.24
2022-08-25T09:03:28.474Z,20.30
2022-08-25T09:06:01.093Z,20.36
2022-08-25T09:08:31.439Z,20.41
2022-08-25T09:11:12.228Z,20.28
2022-08-25T09:14:21.240Z,20.33
2022-08-25T09:17:17.486Z,20.38
2022-08-25T09:19:44.932Z,20.39
2022-08-25T09:22:34.938Z,20.44
2022-08-25T09:25:39.611Z,20.54
2022-08-25T09:28:28.574Z,20.54
2022-08-25T09:31:03.639Z,20.48
2022-08-25T09:33:35.615Z,20.53
2022-08-25T09:36:06.446Z,20.43
2022-08-25T09:38:36.943Z,20.50
2022-08-25T09:41:07.731Z,20.50
2022-08-25T09:43:41.606Z,20.58
2022-08-25T09:46:29.445Z,20.61
2022-08-25T09:49:12.500Z,20.58
2022-08-25T09:51:42.907Z,20.57
2022-08-25T09:54:13.647Z,20.53
2022-08-25T09:56:54.915Z,20.54
2022-08-25T09:59:34.428Z,20.54
2022-08-25T10:02:08.125Z,20.54
2022-08-25T10:04:40.039Z,20.59
2022-08-25T10:07:30.104Z,20.66
2022-08-25T10:10:01.665Z,20.67
2022-08-25T10:12:38.118Z,20.68
2022-08-25T10:15:30.028Z,20.63
2022-08-25T10:18:27.910Z,20.67
2022-08-25T10:21:07.447Z,20.62
2022-08-25T10:23:40.827Z,20.61
2022-08-25T10:26:17.292Z,20.57
2022-08-25T10:29:00.128Z,20.62
2022-08-25T10:31:49.179Z,20.59
2022-08-25T10:34:28.584Z,20.66
2022-08-25T10:37:27.418Z,20.69
2022-08-25T10:40:11.042Z,20.79
2022-08-25T10:42:43.308Z,20.82
2022-08-25T10:45:38.057Z,20.87
2022-08-25T10:48:44.768Z,20.87
2022-08-25T10:51:31.846Z,20.89
2022-08-25T10:54:36.709Z,20.98
2022-08-25T10:57:29.373Z,21.06
2022-08-25T11:00:14.680Z,21.03
2022-08-25T11:03:01.851Z,20.85
2022-08-25T11:05:51.552Z,20.74
2022-08-25T11:08:24.994Z,20.54
2022-08-25T11:11:04.706Z,20.62
2022-08-25T11:13:32.212Z,20.63
2022-08-25T11:16:19.391Z,20.57
2022-08-25T11:19:06.888Z,20.53
2022-08-25T11:22:13.090Z,20.52
2022-08-25T11:24:49.655Z,20.52
2022-08-25T11:27:31.133Z,20.54
2022-08-25T11:30:07.176Z,20.50
2022-08-25T11:32:37.166Z,20.56
2022-08-25T11:35:09.864Z,20.65
2022-08-25T11:37:54.495Z,20.68
2022-08-25T11:40:55.783Z,20.78
2022-08-25T11:43:23.232Z,20.80
2022-08-25T11:46:14.391Z,20.88
2022-08-25T11:48:55.311Z,21.04
2022-08-25T11:51:36.505Z,21.06
2022-08-25T11:54:29.458Z,21.09
2022-08-25T11:56:56.998Z,21.08
2022-08-25T11:59:50.059Z,21.17
2022-08-25T12:02:36.407Z,20.96
2022-08-25T12:05:08.878Z,20.64
2022-08-25T12:07:48.602Z,20.64
2022-08-25T12:10:25.695Z,20.84
2022-08-25T12:12:56.642Z,20.81
2022-08-25T12:15:25.997Z,20.91
2022-08-25T12:18:29.635Z,21.09
2022-08-25T12:20:57.432Z,21.15
2022-08-25T12:24:02.870Z,21.21
2022-08-25T12:26:40.507Z,21.19
2022-08-25T12:29:24.974Z,21.13
2022-08-25T12:32:04.886Z,21.10
2022-08-25T12:34:54.080Z,21.11
2022-08-25T12:37:24.211Z,21.11
2022-08-25T12:40:00.063Z,21.00
2022-08-25T12:42:30.945Z,21.01
2022-08-25T12:45:19.853Z,20.96
2022-08-25T12:47:49.654Z,21.03
2022-08-25T12:50:46.236Z,20.92
2022-08-25T12:53:37.933Z,20.86
2022-08-25T12:56:24.374Z,20.98
2022-08-25T12:59:19.546Z,20.91
2022-08-25T13:02:15.027Z,20.98
2022-08-25T13:05:07.715Z,20.90
2022-08-25T13:07:38.330Z,20.86
2022-08-25T13:10:12.183Z,20.87
2022-08-25T13:12:57.858Z,20.87
2022-08-25T13:15:36.404Z,20.85
2022-08-25T13:18:30.740Z,20.95
2022-08-25T13:21:15.158Z,20.59
2022-08-25T13:23:45.917Z,20.66
2022-08-25T13:26:16.649Z,20.64
2022-08-25T13:28:54.077Z,20.71
2022-08-25T13:31:22.573Z,20.52
2022-08-25T13:33:59.469Z,20.67
2022-08-25T13:36:54.309Z,20.54
2022-08-25T13:39:52.658Z,20.59
2022-08-25T13:42:17.600Z,20.54
2022-08-25T13:44:51.895Z,20.57
2022-08-25T13:47:45.495Z,20.32
2022-08-25T13:50:18.374Z,20.19
2022-08-25T13:52:56.273Z,20.44
2022-08-25T13:55:50.449Z,20.52
2022-08-25T13:58:45.691Z,20.57
2022-08-25T14:01:23.261Z,20.57
2022-08-25T14:04:33.591Z,20.59
2022-08-25T14:07:19.517Z,20.57
2022-08-25T14:09:53.207Z,20.45
2022-08-25T14:15:11.830Z,20.36
2022-08-25T14:17:42.674Z,20.30
2022-08-25T14:20:25.741Z,20.14
2022-08-25T14:22:58.060Z,20.27
2022-08-25T14:25:32.631Z,20.24
2022-08-25T14:28:07.359Z,20.08
2022-08-25T14:30:39.598Z,20.06
2022-08-25T14:33:12.392Z,20.14
2022-08-25T14:35:42.305Z,20.15
2022-08-25T14:38:11.992Z,20.23
2022-08-25T14:40:40.073Z,20.03
2022-08-25T14:43:09.512Z,19.88
2022-08-25T14:45:41.098Z,19.96
2022-08-25T14:48:14.412Z,19.99
2022-08-25T14:50:42.366Z,20.02
2022-08-25T14:53:11.811Z,20.12
2022-08-25T14:55:39.837Z,20.03
2022-08-25T14:58:08.663Z,20.15
2022-08-25T15:00:42.078Z,20.19
2022-08-25T15:03:16.812Z,19.92
2022-08-25T15:05:45.476Z,20.03
2022-08-25T15:08:33.358Z,20.11
2022-08-25T15:11:01.384Z,20.07
2022-08-25T15:13:36.786Z,20.02
2022-08-25T15:16:05.277Z,20.02
2022-08-25T15:18:33.222Z,19.97
2022-08-25T15:21:01.099Z,19.98
2022-08-25T15:23:29.494Z,19.98
2022-08-25T15:25:57.411Z,20.02
2022-08-25T15:28:25.189Z,19.99
2022-08-25T15:30:54.106Z,19.80
2022-08-25T15:33:22.885Z,19.70
2022-08-25T15:35:50.692Z,19.77
2022-08-25T15:38:20.699Z,19.81
2022-08-25T15:40:48.250Z,19.82
2022-08-25T15:43:16.594Z,19.79
2022-08-25T15:45:44.106Z,19.80
2022-08-25T15:48:14.334Z,19.60
2022-08-25T15:50:42.334Z,19.69
2022-08-25T15:53:10.561Z,19.67
2022-08-25T15:55:40.061Z,19.55
2022-08-25T15:58:08.836Z,19.47
2022-08-25T16:00:37.756Z,19.37
2022-08-25T16:03:08.100Z,19.41
2022-08-25T16:05:38.005Z,19.42
2022-08-25T16:08:06.765Z,19.46
2022-08-25T16:10:47.064Z,19.45
2022-08-25T16:13:15.008Z,19.50
2022-08-25T16:15:54.169Z,19.49
2022-08-25T16:18:23.513Z,19.51
2022-08-25T16:20:51.858Z,19.50
2022-08-25T16:23:20.495Z,19.49
2022-08-25T16:25:49.600Z,19.47
2022-08-25T16:28:20.671Z,19.43
2022-08-25T16:30:52.910Z,19.43
2022-08-25T16:33:20.605Z,19.40
2022-08-25T16:35:49.165Z,19.38
2022-08-25T16:38:16.812Z,19.40
2022-08-25T16:40:45.950Z,19.29
2022-08-25T16:43:13.531Z,19.20
2022-08-25T16:45:41.410Z,19.27
2022-08-25T16:48:09.452Z,19.19
2022-08-25T16:50:39.488Z,19.19
2022-08-25T16:53:25.267Z,19.26
2022-08-25T16:56:05.070Z,19.18
2022-08-25T16:58:35.789Z,19.14
2022-08-25T17:01:15.015Z,19.14
2022-08-25T17:03:44.204Z,19.15
2022-08-25T17:06:14.192Z,19.15
2022-08-25T17:08:43.096Z,19.14
2022-08-25T17:11:17.640Z,19.12
2022-08-25T17:13:49.863Z,19.17
2022-08-25T17:16:19.398Z,18.98
2022-08-25T17:18:48.542Z,19.04
2022-08-25T17:21:24.115Z,18.82
2022-08-25T17:23:54.238Z,18.94
2022-08-25T17:26:27.995Z,19.00
2022-08-25T17:28:59.430Z,18.90
2022-08-25T17:31:28.498Z,18.98
2022-08-25T17:33:57.619Z,18.94
2022-08-25T17:36:26.920Z,18.97
2022-08-25T17:38:56.830Z,18.95
2022-08-25T17:41:25.478Z,18.79
2022-08-25T17:43:53.010Z,18.74
2022-08-25T17:46:21.762Z,18.71
2022-08-25T17:48:49.834Z,18.73
2022-08-25T17:51:17.743Z,18.84
2022-08-25T17:53:45.414Z,18.86
2022-08-25T17:56:21.516Z,18.88
2022-08-25T17:58:50.206Z,18.88
2022-08-25T18:01:22.433Z,18.77
2022-08-25T18:03:50.841Z,18.86
2022-08-25T18:06:19.771Z,18.88
2022-08-25T18:08:52.333Z,18.85
2022-08-25T18:11:24.652Z,18.85
2022-08-25T18:13:53.902Z,18.82
2022-08-25T18:16:22.979Z,18.85
2022-08-25T18:18:51.465Z,18.78
2022-08-25T18:21:22.480Z,18.70
2022-08-25T18:23:50.364Z,18.70
2022-08-25T18:26:21.966Z,18.73
2022-08-25T18:28:53.463Z,18.71
2022-08-25T18:31:21.525Z,18.73
2022-08-25T18:33:50.936Z,18.73
2022-08-25T18:36:21.161Z,18.71
2022-08-25T18:39:07.930Z,18.73
2022-08-25T18:41:40.383Z,18.73
2022-08-25T18:44:08.981Z,18.68
2022-08-25T18:46:40.231Z,18.62
2022-08-25T18:49:08.996Z,18.65
2022-08-25T18:51:37.312Z,18.65
2022-08-25T18:54:05.331Z,18.66
2022-08-25T18:56:34.270Z,18.66
2022-08-25T18:59:01.955Z,18.66
2022-08-25T19:01:30.095Z,18.63
2022-08-25T19:03:57.740Z,18.57
2022-08-25T19:06:25.342Z,18.54
2022-08-25T19:08:53.551Z,18.64
2022-08-25T19:11:22.322Z,18.60
2022-08-25T19:13:51.350Z,18.53
2022-08-25T19:16:34.476Z,18.49
2022-08-25T19:19:04.236Z,18.45
2022-08-25T19:21:35.405Z,18.46
2022-08-25T19:24:03.341Z,18.49
2022-08-25T19:26:31.768Z,18.48
2022-08-25T19:28:59.691Z,18.44
2022-08-25T19:31:28.085Z,18.50
2022-08-25T19:34:01.851Z,18.43
2022-08-25T19:36:30.287Z,18.54
2022-08-25T19:39:01.267Z,18.54
2022-08-25T19:41:31.263Z,18.55
2022-08-25T19:43:59.500Z,18.49
2022-08-25T19:46:33.299Z,18.51
2022-08-25T19:49:09.568Z,18.46
2022-08-25T19:51:44.139Z,18.43
2022-08-25T19:54:14.946Z,18.40
2022-08-25T19:56:53.902Z,18.43
2022-08-25T19:59:26.844Z,18.39
2022-08-25T20:02:10.847Z,18.38
2022-08-25T20:04:38.820Z,18.42
2022-08-25T20:07:07.500Z,18.23
2022-08-25T20:09:41.092Z,18.30
2022-08-25T20:12:10.449Z,18.20
2022-08-25T20:14:39.197Z,18.25
2022-08-25T20:17:23.459Z,18.23
2022-08-25T20:19:57.666Z,18.14
2022-08-25T20:22:29.479Z,18.13
2022-08-25T20:25:01.237Z,18.08
2022-08-25T20:27:34.042Z,18.01
2022-08-25T20:30:03.039Z,18.08
2022-08-25T20:32:33.007Z,18.14
2022-08-25T20:35:02.342Z,18.15
2022-08-25T20:37:31.530Z,18.18
2022-08-25T20:40:02.304Z,18.20
2022-08-25T20:42:30.034Z,18.11
2022-08-25T20:44:57.548Z,18.10
2022-08-25T20:47:25.734Z,18.11
2022-08-25T20:49:53.432Z,18.14
2022-08-25T20:52:21.068Z,18.12
2022-08-25T20:54:51.041Z,18.11
2022-08-25T20:57:25.545Z,18.11
2022-08-25T20:59:54.973Z,18.05
2022-08-25T21:02:24.344Z,18.02
2022-08-25T21:04:53.984Z,18.16
2022-08-25T21:07:25.855Z,18.18
2022-08-25T21:09:56.310Z,18.17
2022-08-25T21:12:24.018Z,18.03
2022-08-25T21:14:51.904Z,18.02
2022-08-25T21:17:20.166Z,18.06
2022-08-25T21:22:16.467Z,18.07
2022-08-25T21:24:45.039Z,18.08
2022-08-25T21:27:12.618Z,18.08
2022-08-25T21:29:44.546Z,18.06
2022-08-25T21:32:19.166Z,18.07
2022-08-25T21:34:51.468Z,18.06
2022-08-25T21:37:18.939Z,18.02
2022-08-25T21:39:46.760Z,17.99
2022-08-25T21:42:14.402Z,17.80
2022-08-25T21:44:42.958Z,17.79
2022-08-25T21:47:10.932Z,17.88
2022-08-25T21:49:38.626Z,17.86
2022-08-25T21:52:07.583Z,17.82
2022-08-25T21:54:35.166Z,17.82
2022-08-25T21:57:06.218Z,17.86
2022-08-25T21:59:37.691Z,17.86
2022-08-25T22:02:11.359Z,17.86
2022-08-25T22:04:39.608Z,17.86
2022-08-25T22:07:09.000Z,17.87
2022-08-25T22:09:37.156Z,17.83
2022-08-25T22:12:05.444Z,17.83
2022-08-25T22:14:33.893Z,17.83
2022-08-25T22:17:02.610Z,17.80
2022-08-25T22:19:30.264Z,17.79
2022-08-25T22:22:01.780Z,17.72
2022-08-25T22:24:29.322Z,17.77
2022-08-25T22:26:57.120Z,17.81
2022-08-25T22:29:26.277Z,17.89
2022-08-25T22:31:59.332Z,17.87
2022-08-25T22:34:34.458Z,17.87
2022-08-25T22:37:03.958Z,17.80
2022-08-25T22:39:34.304Z,17.84
2022-08-25T22:42:03.563Z,17.85
2022-08-25T22:44:31.094Z,17.87
2022-08-25T22:46:58.662Z,17.85
2022-08-25T22:49:29.015Z,17.83
2022-08-25T22:51:56.458Z,17.85
2022-08-25T22:54:25.588Z,17.89
2022-08-25T22:56:53.736Z,17.92
2022-08-25T22:59:22.507Z,17.88
2022-08-25T23:01:52.691Z,17.86
2022-08-25T23:04:22.810Z,17.83
2022-08-25T23:06:52.729Z,17.83
2022-08-25T23:09:20.942Z,17.80
2022-08-25T23:11:51.146Z,17.81
2022-08-25T23:14:19.366Z,17.81
2022-08-25T23:16:47.096Z,17.80
2022-08-25T23:19:14.823Z,17.81
2022-08-25T23:22:16.444Z,17.84
2022-08-25T23:24:48.186Z,17.86
2022-08-25T23:27:18.402Z,17.84
2022-08-25T23:29:49.401Z,17.82
2022-08-25T23:32:17.998Z,17.76
2022-08-25T23:34:47.083Z,17.83
2022-08-25T23:37:16.237Z,17.82
2022-08-25T23:39:48.122Z,17.78
2022-08-25T23:42:19.298Z,17.82
2022-08-25T23:44:48.074Z,17.77
2022-08-25T23:47:16.063Z,17.85
2022-08-25T23:49:43.726Z,17.82
2022-08-25T23:52:11.306Z,17.81
2022-08-25T23:54:39.407Z,17.87
2022-08-25T23:57:07.431Z,17.85
2022-08-25T23:59:36.434Z,17.75
